Time;durP1;ratioP1;P1;durP2;ratioP2;P2;SDS_P1;SDS_P2;PMS_P1;PMS_P2;Temp;Humidity;BMP_temperature;BMP_pressure;BME280_temperature;BME280_humidity;BME280_pressure;Samples;Min_cycle;Max_cycle;Signal;HPM_P1;HPM_P2
2023/09/09 00:01:46;;;;;;;7.13;6.50;;;;;;;;;;5020540;28;20450;-70
2023/09/09 00:04:13;;;;;;;7.50;6.90;;;;;;;;;;5024249;28;20499;-70
2023/09/09 00:06:41;;;;;;;7.00;6.40;;;;;;;;;;5023850;28;20433;-70
2023/09/09 00:09:08;;;;;;;7.40;6.80;;;;;;;;;;5024500;28;20438;-71
2023/09/09 00:11:35;;;;;;;7.43;6.85;;;;;;;;;;5024524;28;20423;-70
2023/09/09 00:14:03;;;;;;;6.72;6.20;;;;;;;;;;5023207;28;20451;-70
2023/09/09 00:16:35;;;;;;;6.90;6.40;;;;;;;;;;5015944;28;20417;-70
2023/09/09 00:19:02;;;;;;;7.17;6.53;;;;;;;;;;5024279;28;20497;-70
2023/09/09 00:21:29;;;;;;;6.95;6.35;;;;;;;;;;5023771;28;20968;-69
2023/09/09 00:23:56;;;;;;;7.25;6.65;;;;;;;;;;5019855;28;20785;-72
2023/09/09 00:26:25;;;;;;;6.45;5.85;;;;;;;;;;5013293;28;20852;-72
2023/09/09 00:28:52;;;;;;;6.63;6.13;;;;;;;;;;5021341;28;21031;-72
2023/09/09 00:31:19;;;;;;;6.53;5.97;;;;;;;;;;5024534;28;20418;-71
2023/09/09 00:33:47;;;;;;;6.68;6.07;;;;;;;;;;5023477;28;20446;-69
2023/09/09 00:36:15;;;;;;;6.78;6.18;;;;;;;;;;5031021;28;20421;-72
2023/09/09 00:38:42;;;;;;;6.95;6.25;;;;;;;;;;5022302;28;20434;-72
2023/09/09 00:41:17;;;;;;;6.85;6.35;;;;;;;;;;5023504;28;20434;-72
2023/09/09 00:43:44;;;;;;;7.13;6.63;;;;;;;;;;5025146;28;20458;-69
2023/09/09 00:46:12;;;;;;;6.53;6.03;;;;;;;;;;5023816;28;20449;-69
2023/09/09 00:48:39;;;;;;;6.70;6.00;;;;;;;;;;5023935;28;20415;-69
2023/09/09 00:51:11;;;;;;;6.43;5.90;;;;;;;;;;5024968;28;20425;-70
2023/09/09 00:53:38;;;;;;;6.60;6.10;;;;;;;;;;5020323;28;20668;-69
2023/09/09 00:56:05;;;;;;;6.30;5.80;;;;;;;;;;5015006;28;20437;-70
2023/09/09 00:58:32;;;;;;;6.68;6.05;;;;;;;;;;5018343;28;20442;-70
2023/09/09 01:01:00;;;;;;;6.07;5.55;;;;;;;;;;5021967;28;20434;-70
2023/09/09 01:03:27;;;;;;;6.30;5.70;;;;;;;;;;5019228;28;20494;-70
2023/09/09 01:05:56;;;;;;;6.40;5.80;;;;;;;;;;5011705;28;20447;-69
2023/09/09 01:08:27;;;;;;;6.20;5.70;;;;;;;;;;5024270;28;20431;-70
2023/09/09 01:10:54;;;;;;;6.40;5.90;;;;;;;;;;5025948;28;20422;-72
2023/09/09 01:13:21;;;;;;;6.05;5.55;;;;;;;;;;5027596;28;20442;-72
2023/09/09 01:15:48;;;;;;;6.78;6.18;;;;;;;;;;5026118;28;20434;-69
2023/09/09 01:18:17;;;;;;;7.10;6.50;;;;;;;;;;5023301;28;20440;-70
2023/09/09 01:20:45;;;;;;;6.10;5.60;;;;;;;;;;5027961;28;21073;-68
2023/09/09 01:23:13;;;;;;;6.05;5.65;;;;;;;;;;5028067;28;20430;-72
2023/09/09 01:25:39;;;;;;;6.43;5.83;;;;;;;;;;5028062;28;20876;-72
2023/09/09 01:28:06;;;;;;;5.82;5.32;;;;;;;;;;5027404;28;20423;-71
2023/09/09 01:30:33;;;;;;;6.18;5.60;;;;;;;;;;5026439;28;20819;-71
2023/09/09 01:33:00;;;;;;;6.60;6.00;;;;;;;;;;5027392;28;20430;-71
2023/09/09 01:35:27;;;;;;;6.13;5.63;;;;;;;;;;5027065;28;20518;-71
2023/09/09 01:37:55;;;;;;;6.50;5.93;;;;;;;;;;5026966;28;20893;-71
2023/09/09 01:40:23;;;;;;;6.30;5.80;;;;;;;;;;5028048;28;20431;-71
2023/09/09 01:42:50;;;;;;;6.40;5.85;;;;;;;;;;5027631;28;20414;-70
2023/09/09 01:45:18;;;;;;;6.72;6.13;;;;;;;;;;5025830;28;20439;-71
2023/09/09 01:47:45;;;;;;;6.80;6.20;;;;;;;;;;5018318;28;20430;-71
2023/09/09 01:50:12;;;;;;;5.85;5.35;;;;;;;;;;5034317;28;20421;-72
2023/09/09 01:52:39;;;;;;;6.82;6.32;;;;;;;;;;5027798;28;20453;-71
2023/09/09 01:55:06;;;;;;;6.70;6.10;;;;;;;;;;5025987;28;20439;-71
2023/09/09 01:57:35;;;;;;;6.75;6.20;;;;;;;;;;5025715;28;20438;-71
2023/09/09 02:00:07;;;;;;;6.82;6.13;;;;;;;;;;5025013;28;20465;-73
2023/09/09 02:02:34;;;;;;;6.97;6.38;;;;;;;;;;5024556;28;20431;-73
2023/09/09 02:05:01;;;;;;;6.55;5.95;;;;;;;;;;5026049;28;20483;-74
2023/09/09 02:07:28;;;;;;;7.60;6.70;;;;;;;;;;5025131;28;20427;-74
2023/09/09 02:09:55;;;;;;;6.70;6.15;;;;;;;;;;5025221;28;20438;-75
2023/09/09 02:12:22;;;;;;;6.15;5.65;;;;;;;;;;5026637;28;20721;-74
2023/09/09 02:14:51;;;;;;;7.00;6.30;;;;;;;;;;5025233;28;20441;-74
2023/09/09 02:17:18;;;;;;;7.13;6.50;;;;;;;;;;5022503;28;20455;-74
2023/09/09 02:19:45;;;;;;;6.77;6.17;;;;;;;;;;5024642;28;20503;-75
2023/09/09 02:22:12;;;;;;;8.50;6.10;;;;;;;;;;5025405;28;20450;-73
2023/09/09 02:24:39;;;;;;;6.78;6.28;;;;;;;;;;5020261;28;20423;-74
2023/09/09 02:27:06;;;;;;;6.30;5.70;;;;;;;;;;5026150;28;20422;-74
2023/09/09 02:29:33;;;;;;;6.40;5.90;;;;;;;;;;5024729;28;20762;-75
2023/09/09 02:32:01;;;;;;;6.95;6.30;;;;;;;;;;5025869;28;20935;-75
2023/09/09 02:34:28;;;;;;;6.75;6.10;;;;;;;;;;5039238;28;20431;-74
2023/09/09 02:37:16;;;;;;;7.23;6.73;;;;;;;;;;5024701;28;20423;-74
2023/09/09 02:39:44;;;;;;;6.80;6.30;;;;;;;;;;5024603;28;20528;-75
2023/09/09 02:42:12;;;;;;;8.25;6.97;;;;;;;;;;5026751;28;20430;-75
2023/09/09 02:44:39;;;;;;;7.43;6.72;;;;;;;;;;5025084;28;20812;-75
2023/09/09 02:47:08;;;;;;;6.53;6.03;;;;;;;;;;5030232;28;20865;-74
2023/09/09 02:49:35;;;;;;;7.27;6.57;;;;;;;;;;5016997;28;20622;-73
2023/09/09 02:52:02;;;;;;;7.30;6.70;;;;;;;;;;5026011;28;20406;-75
2023/09/09 02:54:29;;;;;;;7.40;6.80;;;;;;;;;;5024226;28;20723;-75
2023/09/09 02:56:56;;;;;;;7.18;6.63;;;;;;;;;;5017109;28;20422;-74
2023/09/09 02:59:24;;;;;;;7.28;6.68;;;;;;;;;;5026378;28;20475;-74
2023/09/09 03:01:51;;;;;;;7.70;7.00;;;;;;;;;;5021315;28;20435;-74
2023/09/09 03:04:20;;;;;;;7.00;6.40;;;;;;;;;;5025898;28;20430;-73
2023/09/09 03:06:47;;;;;;;6.97;6.38;;;;;;;;;;5025394;28;20842;-73
2023/09/09 03:09:15;;;;;;;7.20;6.60;;;;;;;;;;5025963;28;20418;-73
2023/09/09 03:11:42;;;;;;;6.70;6.10;;;;;;;;;;5030478;28;20450;-74
2023/09/09 03:14:09;;;;;;;6.93;6.32;;;;;;;;;;5007745;28;20654;-72
2023/09/09 03:16:36;;;;;;;7.55;6.85;;;;;;;;;;5022900;28;21314;-74
2023/09/09 03:19:03;;;;;;;7.13;6.53;;;;;;;;;;5015279;28;20431;-75
2023/09/09 03:21:32;;;;;;;7.00;6.40;;;;;;;;;;5023003;28;20438;-74
2023/09/09 03:23:59;;;;;;;7.20;6.50;;;;;;;;;;5025475;28;20415;-76
2023/09/09 03:26:26;;;;;;;7.07;6.47;;;;;;;;;;5021046;28;20431;-75
2023/09/09 03:28:53;;;;;;;7.63;6.95;;;;;;;;;;5025754;28;20415;-74
2023/09/09 03:31:20;;;;;;;7.15;6.60;;;;;;;;;;5023414;28;20521;-75
2023/09/09 03:33:47;;;;;;;7.35;6.65;;;;;;;;;;5023674;28;20453;-75
2023/09/09 03:36:14;;;;;;;7.00;6.40;;;;;;;;;;5024068;28;20523;-75
2023/09/09 03:38:43;;;;;;;6.97;6.47;;;;;;;;;;5024816;28;20496;-75
2023/09/09 03:41:10;;;;;;;7.10;6.50;;;;;;;;;;5022350;28;20435;-76
2023/09/09 03:43:37;;;;;;;7.40;6.80;;;;;;;;;;5023792;28;20456;-75
2023/09/09 03:46:04;;;;;;;7.40;6.80;;;;;;;;;;5022135;28;20435;-75
2023/09/09 03:48:31;;;;;;;6.93;6.22;;;;;;;;;;5016012;28;20437;-74
2023/09/09 03:50:59;;;;;;;7.30;6.70;;;;;;;;;;5024641;28;20411;-75
2023/09/09 03:53:26;;;;;;;7.30;6.70;;;;;;;;;;5024545;28;20419;-76
2023/09/09 03:55:55;;;;;;;6.80;6.10;;;;;;;;;;5023689;28;20496;-75
2023/09/09 03:58:23;;;;;;;7.20;6.60;;;;;;;;;;5013475;28;20916;-74
2023/09/09 04:00:50;;;;;;;7.25;6.65;;;;;;;;;;5022779;28;20791;-75
2023/09/09 04:03:17;;;;;;;6.93;6.32;;;;;;;;;;5022719;28;20542;-74
2023/09/09 04:05:47;;;;;;;7.25;6.65;;;;;;;;;;5024250;28;20738;-75
2023/09/09 04:08:14;;;;;;;6.72;6.22;;;;;;;;;;5024127;28;20437;-76
2023/09/09 04:10:41;;;;;;;7.00;6.50;;;;;;;;;;5023895;28;20446;-74
2023/09/09 04:13:10;;;;;;;8.00;7.20;;;;;;;;;;5025147;28;20432;-75
2023/09/09 04:15:40;;;;;;;7.20;6.60;;;;;;;;;;5018662;28;20467;-74
2023/09/09 04:18:07;;;;;;;7.63;7.03;;;;;;;;;;5021527;28;20893;-74
2023/09/09 04:20:34;;;;;;;7.18;6.57;;;;;;;;;;5025148;28;20423;-74
2023/09/09 04:23:02;;;;;;;7.40;6.80;;;;;;;;;;5023795;28;20831;-70
2023/09/09 04:25:29;;;;;;;7.00;6.50;;;;;;;;;;5020983;28;20435;-73
2023/09/09 04:27:56;;;;;;;7.75;7.15;;;;;;;;;;5017882;28;20438;-73
2023/09/09 04:30:24;;;;;;;7.80;7.10;;;;;;;;;;5014373;28;20443;-71
2023/09/09 04:32:51;;;;;;;7.85;7.07;;;;;;;;;;5021802;28;20439;-73
2023/09/09 04:35:18;;;;;;;7.60;7.00;;;;;;;;;;5021114;28;20499;-73
2023/09/09 04:37:45;;;;;;;7.88;7.25;;;;;;;;;;5025001;28;20442;-73
2023/09/09 04:40:13;;;;;;;8.00;7.30;;;;;;;;;;5024770;28;20423;-72
2023/09/09 04:42:40;;;;;;;7.93;7.32;;;;;;;;;;5013140;28;20419;-72
2023/09/09 04:45:07;;;;;;;8.10;7.30;;;;;;;;;;5018127;28;20430;-74
2023/09/09 04:47:36;;;;;;;7.40;6.80;;;;;;;;;;5022524;28;20419;-73
2023/09/09 04:50:03;;;;;;;7.85;7.25;;;;;;;;;;5034095;28;20415;-74
2023/09/09 04:52:30;;;;;;;8.38;7.68;;;;;;;;;;5028649;28;20850;-73
2023/09/09 04:54:57;;;;;;;8.75;7.95;;;;;;;;;;5024229;28;20554;-73
2023/09/09 04:57:24;;;;;;;8.60;7.70;;;;;;;;;;5011492;28;20431;-73
2023/09/09 04:59:51;;;;;;;7.70;7.00;;;;;;;;;;5017082;28;20406;-73
2023/09/09 05:02:18;;;;;;;8.50;7.80;;;;;;;;;;5012465;28;20436;-73
2023/09/09 05:04:47;;;;;;;7.80;7.10;;;;;;;;;;5013748;28;20409;-71
2023/09/09 05:07:14;;;;;;;8.20;7.40;;;;;;;;;;5020877;28;20414;-71
2023/09/09 05:09:41;;;;;;;8.02;7.40;;;;;;;;;;5015177;28;20489;-73
2023/09/09 05:12:08;;;;;;;7.65;7.05;;;;;;;;;;5009898;28;20410;-73
2023/09/09 05:14:35;;;;;;;8.02;7.32;;;;;;;;;;5016756;28;20963;-70
2023/09/09 05:17:02;;;;;;;8.00;7.40;;;;;;;;;;5011562;28;20442;-71
2023/09/09 05:19:29;;;;;;;8.02;7.43;;;;;;;;;;5011547;28;20421;-67
2023/09/09 05:21:58;;;;;;;7.75;7.15;;;;;;;;;;5013829;28;20451;-71
2023/09/09 05:24:25;;;;;;;8.23;7.53;;;;;;;;;;5017745;28;20442;-71
2023/09/09 05:26:52;;;;;;;8.02;7.32;;;;;;;;;;5020293;28;20427;-73
2023/09/09 05:29:19;;;;;;;7.78;7.07;;;;;;;;;;5022104;28;20411;-69
2023/09/09 05:31:46;;;;;;;7.80;7.00;;;;;;;;;;5020280;28;20439;-71
2023/09/09 05:34:13;;;;;;;7.60;7.00;;;;;;;;;;5020093;28;20512;-72
2023/09/09 05:36:40;;;;;;;7.88;7.18;;;;;;;;;;5015042;28;20431;-71
2023/09/09 05:39:08;;;;;;;7.85;7.05;;;;;;;;;;5021189;28;20423;-71
2023/09/09 05:41:35;;;;;;;7.55;6.95;;;;;;;;;;5028778;28;20509;-77
2023/09/09 05:44:02;;;;;;;7.40;6.90;;;;;;;;;;5023867;28;20438;-78
2023/09/09 05:46:29;;;;;;;7.90;6.90;;;;;;;;;;5022051;28;20442;-80
2023/09/09 05:48:56;;;;;;;7.28;6.68;;;;;;;;;;5021358;28;20451;-79
2023/09/09 05:51:24;;;;;;;7.32;6.72;;;;;;;;;;5017529;28;20518;-77
2023/09/09 05:53:52;;;;;;;6.95;6.35;;;;;;;;;;5022480;28;20517;-78
2023/09/09 05:56:21;;;;;;;7.93;7.10;;;;;;;;;;5010711;28;20445;-78
2023/09/09 05:58:48;;;;;;;6.95;6.35;;;;;;;;;;5025554;28;20430;-78
2023/09/09 06:01:15;;;;;;;7.25;6.65;;;;;;;;;;5019960;28;20424;-79
2023/09/09 06:03:42;;;;;;;7.22;6.60;;;;;;;;;;5020844;28;20496;-78
2023/09/09 06:06:09;;;;;;;7.10;6.40;;;;;;;;;;5026337;28;20861;-79
2023/09/09 06:08:36;;;;;;;7.07;6.47;;;;;;;;;;5027652;28;20462;-79
2023/09/09 06:11:04;;;;;;;7.30;6.70;;;;;;;;;;5027572;28;20866;-78
2023/09/09 06:13:32;;;;;;;7.30;6.70;;;;;;;;;;5027281;28;20511;-79
2023/09/09 06:15:59;;;;;;;6.93;6.30;;;;;;;;;;5027098;28;20437;-79
2023/09/09 06:18:26;;;;;;;7.18;6.68;;;;;;;;;;5021288;28;20461;-79
2023/09/09 06:20:53;;;;;;;6.85;6.25;;;;;;;;;;5023539;28;20431;-80
2023/09/09 06:23:20;;;;;;;7.53;6.82;;;;;;;;;;5027531;28;20419;-78
2023/09/09 06:25:50;;;;;;;7.30;6.70;;;;;;;;;;5017754;28;20422;-78
2023/09/09 06:28:17;;;;;;;7.60;7.00;;;;;;;;;;5025884;28;20418;-76
2023/09/09 06:30:45;;;;;;;7.38;6.78;;;;;;;;;;5025781;28;20415;-78
2023/09/09 06:33:12;;;;;;;6.90;6.30;;;;;;;;;;5025917;28;20922;-79
2023/09/09 06:35:48;;;;;;;6.70;6.10;;;;;;;;;;5030452;28;20448;-79
2023/09/09 06:38:15;;;;;;;7.17;6.57;;;;;;;;;;5040118;28;20421;-79
2023/09/09 06:40:44;;;;;;;7.10;6.50;;;;;;;;;;5027114;28;20527;-79
2023/09/09 06:43:11;;;;;;;7.28;6.78;;;;;;;;;;5015380;28;20531;-79
2023/09/09 06:45:38;;;;;;;7.40;6.80;;;;;;;;;;5030915;28;20411;-78
2023/09/09 06:48:07;;;;;;;7.30;6.70;;;;;;;;;;5026710;28;20465;-79
2023/09/09 06:50:34;;;;;;;7.70;7.00;;;;;;;;;;5026520;28;20473;-78
2023/09/09 06:53:02;;;;;;;6.90;6.40;;;;;;;;;;5039044;28;20413;-79
2023/09/09 06:55:30;;;;;;;7.20;6.60;;;;;;;;;;5025989;28;20443;-79
2023/09/09 06:57:57;;;;;;;7.28;6.68;;;;;;;;;;5025891;28;20419;-79
2023/09/09 07:00:24;;;;;;;7.60;6.80;;;;;;;;;;5023314;28;20426;-79
2023/09/09 07:02:51;;;;;;;7.80;7.10;;;;;;;;;;5021652;28;20430;-79
2023/09/09 07:05:19;;;;;;;7.75;7.05;;;;;;;;;;5026483;28;20745;-79
2023/09/09 07:07:46;;;;;;;7.25;6.65;;;;;;;;;;5024763;28;20415;-79
2023/09/09 07:10:13;;;;;;;6.90;6.40;;;;;;;;;;5021180;28;20921;-79
2023/09/09 07:12:42;;;;;;;8.10;7.40;;;;;;;;;;5015220;28;20450;-79
2023/09/09 07:15:09;;;;;;;7.00;6.50;;;;;;;;;;5037669;28;20495;-79
2023/09/09 07:17:36;;;;;;;7.30;6.60;;;;;;;;;;5028425;28;20689;-79
2023/09/09 07:20:04;;;;;;;7.13;6.53;;;;;;;;;;5012284;28;20778;-79
2023/09/09 07:22:32;;;;;;;6.85;6.35;;;;;;;;;;5018723;28;20415;-79
2023/09/09 07:24:59;;;;;;;6.90;6.40;;;;;;;;;;5026713;28;20415;-80
2023/09/09 07:27:26;;;;;;;7.30;6.60;;;;;;;;;;5027254;28;20431;-79
2023/09/09 07:29:53;;;;;;;7.40;6.80;;;;;;;;;;5027785;28;20431;-79
2023/09/09 07:32:20;;;;;;;6.82;6.30;;;;;;;;;;5019736;28;20415;-79
2023/09/09 07:34:47;;;;;;;7.30;6.60;;;;;;;;;;5022624;28;20434;-79
2023/09/09 07:37:14;;;;;;;7.25;6.65;;;;;;;;;;5019753;28;20415;-79
2023/09/09 07:39:46;;;;;;;6.72;6.22;;;;;;;;;;5027002;28;20445;-79
2023/09/09 07:42:13;;;;;;;7.32;6.63;;;;;;;;;;5023480;28;20475;-79
2023/09/09 07:44:41;;;;;;;7.10;6.50;;;;;;;;;;5022047;28;20406;-79
2023/09/09 07:47:08;;;;;;;7.38;6.88;;;;;;;;;;5026956;28;20434;-80
2023/09/09 07:49:35;;;;;;;7.05;6.45;;;;;;;;;;5020975;28;20883;-79
2023/09/09 07:52:02;;;;;;;7.40;6.80;;;;;;;;;;5029562;28;20411;-80
2023/09/09 07:54:30;;;;;;;7.20;6.50;;;;;;;;;;5028843;28;20453;-79
2023/09/09 07:56:58;;;;;;;7.22;6.63;;;;;;;;;;5034330;28;20459;-80
2023/09/09 07:59:26;;;;;;;7.30;6.60;;;;;;;;;;5035316;28;20532;-79
2023/09/09 08:01:53;;;;;;;6.30;5.80;;;;;;;;;;5021746;28;20920;-78
2023/09/09 08:04:20;;;;;;;6.78;6.28;;;;;;;;;;5012246;28;20752;-79
2023/09/09 08:06:48;;;;;;;6.35;5.85;;;;;;;;;;5035849;28;20416;-78
2023/09/09 08:09:16;;;;;;;7.00;6.40;;;;;;;;;;5032707;28;20421;-80
2023/09/09 08:11:43;;;;;;;6.80;6.20;;;;;;;;;;5028100;28;20437;-78
2023/09/09 08:14:11;;;;;;;6.78;6.00;;;;;;;;;;5025624;28;20454;-80
2023/09/09 08:16:38;;;;;;;7.10;6.50;;;;;;;;;;5020315;28;20431;-79
2023/09/09 08:19:05;;;;;;;6.43;5.93;;;;;;;;;;5024694;28;20760;-80
2023/09/09 08:21:32;;;;;;;6.88;6.28;;;;;;;;;;5026291;28;20423;-80
2023/09/09 08:24:00;;;;;;;7.57;6.75;;;;;;;;;;5026525;28;20742;-79
2023/09/09 08:26:27;;;;;;;7.35;6.65;;;;;;;;;;5027097;28;20642;-80
2023/09/09 08:28:54;;;;;;;7.10;6.40;;;;;;;;;;5013999;28;20485;-79
2023/09/09 08:31:23;;;;;;;7.17;6.57;;;;;;;;;;5025039;28;20442;-79
2023/09/09 08:33:50;;;;;;;6.30;5.80;;;;;;;;;;5019168;28;20478;-79
2023/09/09 08:36:17;;;;;;;7.50;6.72;;;;;;;;;;5028215;28;20439;-80
2023/09/09 08:38:45;;;;;;;6.68;6.00;;;;;;;;;;5027553;28;20422;-80
2023/09/09 08:41:13;;;;;;;7.10;6.40;;;;;;;;;;5027067;28;20419;-78
2023/09/09 08:43:44;;;;;;;6.10;5.60;;;;;;;;;;5027674;28;20419;-79
2023/09/09 08:46:13;;;;;;;6.50;6.00;;;;;;;;;;5048123;28;20436;-79
2023/09/09 08:48:42;;;;;;;7.25;6.65;;;;;;;;;;5043682;28;20514;-78
2023/09/09 08:51:10;;;;;;;6.60;6.10;;;;;;;;;;5043877;28;20435;-79
2023/09/09 08:53:37;;;;;;;6.43;5.93;;;;;;;;;;5045129;28;20439;-79
2023/09/09 08:56:04;;;;;;;6.82;6.22;;;;;;;;;;5034741;28;20435;-79
2023/09/09 08:58:31;;;;;;;6.50;6.00;;;;;;;;;;5026049;28;20512;-79
2023/09/09 09:01:00;;;;;;;5.90;5.50;;;;;;;;;;5024371;28;20456;-79
2023/09/09 09:03:28;;;;;;;6.20;5.70;;;;;;;;;;5022210;28;20430;-79
2023/09/09 09:05:57;;;;;;;6.30;5.70;;;;;;;;;;5021695;28;20407;-79
2023/09/09 09:08:24;;;;;;;6.60;6.00;;;;;;;;;;5026047;28;20982;-79
2023/09/09 09:10:51;;;;;;;5.70;5.30;;;;;;;;;;5024768;28;20964;-78
2023/09/09 09:13:18;;;;;;;6.90;6.00;;;;;;;;;;5020163;28;20892;-79
2023/09/09 09:15:45;;;;;;;6.10;5.60;;;;;;;;;;5023637;28;20437;-78
2023/09/09 09:18:12;;;;;;;5.70;5.20;;;;;;;;;;5020240;28;20620;-79
2023/09/09 09:20:40;;;;;;;6.10;5.60;;;;;;;;;;5022387;28;20434;-78
2023/09/09 09:23:11;;;;;;;6.07;5.68;;;;;;;;;;5019836;28;20923;-78
2023/09/09 09:25:39;;;;;;;6.38;5.55;;;;;;;;;;5023124;28;20784;-79
2023/09/09 09:28:06;;;;;;;5.72;5.22;;;;;;;;;;5018208;28;20875;-78
2023/09/09 09:30:33;;;;;;;5.50;5.00;;;;;;;;;;5026448;28;20821;-79
2023/09/09 09:33:00;;;;;;;5.78;5.10;;;;;;;;;;5015124;28;20408;-79
2023/09/09 09:35:28;;;;;;;5.80;5.20;;;;;;;;;;5030758;28;20446;-79
2023/09/09 09:37:57;;;;;;;5.85;5.45;;;;;;;;;;5032017;28;20849;-79
2023/09/09 09:40:25;;;;;;;5.80;5.20;;;;;;;;;;5031854;28;20484;-79
2023/09/09 09:42:52;;;;;;;5.40;4.90;;;;;;;;;;5032113;28;20434;-79
2023/09/09 09:45:23;;;;;;;6.00;5.32;;;;;;;;;;5030208;28;20514;-79
2023/09/09 09:47:50;;;;;;;6.50;5.23;;;;;;;;;;5026493;28;20498;-79
2023/09/09 09:50:19;;;;;;;5.97;5.38;;;;;;;;;;5031301;28;20425;-78
2023/09/09 09:52:48;;;;;;;7.50;6.80;;;;;;;;;;5023931;28;20493;-78
2023/09/09 09:55:18;;;;;;;14.70;13.30;;;;;;;;;;5031130;28;20403;-78
2023/09/09 09:57:47;;;;;;;8.10;7.32;;;;;;;;;;5031681;28;20438;-79
2023/09/09 10:00:15;;;;;;;7.68;6.30;;;;;;;;;;5040738;28;20447;-78
2023/09/09 10:02:42;;;;;;;7.00;5.20;;;;;;;;;;5029249;28;20425;-80
2023/09/09 10:05:11;;;;;;;6.57;4.70;;;;;;;;;;5024845;28;20411;-80
2023/09/09 10:07:39;;;;;;;6.10;4.75;;;;;;;;;;5032737;28;20430;-79
2023/09/09 10:10:08;;;;;;;6.20;4.50;;;;;;;;;;5032113;28;20442;-78
2023/09/09 10:12:38;;;;;;;5.00;4.50;;;;;;;;;;5032187;28;20813;-79
2023/09/09 10:15:08;;;;;;;6.18;5.20;;;;;;;;;;5030433;28;20538;-78
2023/09/09 10:17:36;;;;;;;5.15;4.47;;;;;;;;;;5032127;28;20433;-78
2023/09/09 10:20:05;;;;;;;4.75;4.30;;;;;;;;;;5029134;28;20426;-78
2023/09/09 10:22:32;;;;;;;4.68;4.28;;;;;;;;;;5029797;28;20480;-80
2023/09/09 10:25:03;;;;;;;5.63;4.23;;;;;;;;;;5028058;28;20446;-79
2023/09/09 10:27:30;;;;;;;5.28;4.10;;;;;;;;;;5029789;28;20893;-79
2023/09/09 10:29:59;;;;;;;5.28;4.28;;;;;;;;;;5027739;28;20431;-80
2023/09/09 10:32:27;;;;;;;5.68;4.13;;;;;;;;;;5022081;28;20846;-79
2023/09/09 10:34:55;;;;;;;6.60;4.30;;;;;;;;;;5041873;28;20516;-80
2023/09/09 10:37:22;;;;;;;6.20;4.83;;;;;;;;;;5028628;28;20908;-79
2023/09/09 10:39:50;;;;;;;6.72;4.70;;;;;;;;;;5033819;28;20457;-79
2023/09/09 10:42:18;;;;;;;5.10;4.40;;;;;;;;;;5027566;28;20419;-79
2023/09/09 10:44:48;;;;;;;5.57;4.50;;;;;;;;;;5026862;28;20754;-77
2023/09/09 10:47:16;;;;;;;6.95;4.45;;;;;;;;;;5032464;28;20840;-78
2023/09/09 10:49:44;;;;;;;5.18;4.68;;;;;;;;;;5029807;28;20427;-78
2023/09/09 10:52:26;;;;;;;5.65;4.30;;;;;;;;;;5039156;28;20465;-78
2023/09/09 10:55:10;;;;;;;6.70;4.50;;;;;;;;;;5028323;28;20410;-80
2023/09/09 10:57:37;;;;;;;5.30;4.22;;;;;;;;;;5026371;28;20435;-78
2023/09/09 11:00:06;;;;;;;7.13;4.20;;;;;;;;;;5026447;28;20403;-78
2023/09/09 11:02:44;;;;;;;4.53;3.88;;;;;;;;;;5020449;28;20476;-80
2023/09/09 11:05:14;;;;;;;5.80;4.40;;;;;;;;;;5024014;28;20827;-78
2023/09/09 11:07:41;;;;;;;5.40;4.60;;;;;;;;;;5024576;28;20526;-78
2023/09/09 11:10:08;;;;;;;6.47;4.40;;;;;;;;;;5028888;28;20435;-79
2023/09/09 11:12:37;;;;;;;6.28;4.00;;;;;;;;;;5028697;28;21002;-80
2023/09/09 11:15:08;;;;;;;7.03;4.40;;;;;;;;;;5026616;28;20519;-80
2023/09/09 11:17:36;;;;;;;6.00;4.10;;;;;;;;;;5022961;28;20603;-78
2023/09/09 11:20:04;;;;;;;6.55;4.10;;;;;;;;;;5029323;28;20415;-79
2023/09/09 11:22:33;;;;;;;5.43;4.20;;;;;;;;;;5033309;28;20507;-78
2023/09/09 11:25:00;;;;;;;4.28;3.88;;;;;;;;;;5037189;28;20435;-79
2023/09/09 11:27:28;;;;;;;4.28;3.88;;;;;;;;;;5041098;28;20556;-79
2023/09/09 11:29:55;;;;;;;6.30;3.50;;;;;;;;;;5036017;28;20612;-80
2023/09/09 11:32:26;;;;;;;6.53;4.10;;;;;;;;;;5027842;28;20514;-78
2023/09/09 11:34:53;;;;;;;5.47;4.00;;;;;;;;;;5027984;28;20430;-79
2023/09/09 11:37:20;;;;;;;5.40;3.70;;;;;;;;;;5022096;28;20481;-79
2023/09/09 11:39:49;;;;;;;4.88;4.00;;;;;;;;;;5030632;28;20434;-78
2023/09/09 11:42:16;;;;;;;8.68;3.70;;;;;;;;;;5027221;28;20455;-79
2023/09/09 11:44:43;;;;;;;6.22;3.75;;;;;;;;;;5025622;28;20453;-78
2023/09/09 11:47:11;;;;;;;7.15;3.88;;;;;;;;;;5029722;28;20612;-78
2023/09/09 11:49:39;;;;;;;5.38;3.70;;;;;;;;;;5024130;28;20833;-78
2023/09/09 11:52:06;;;;;;;6.68;4.00;;;;;;;;;;5037979;28;20500;-78
2023/09/09 11:54:33;;;;;;;6.22;3.97;;;;;;;;;;5026558;28;20422;-78
2023/09/09 11:57:06;;;;;;;5.15;3.40;;;;;;;;;;5034016;28;20707;-78
2023/09/09 11:59:33;;;;;;;4.63;3.50;;;;;;;;;;5022901;28;20442;-78
2023/09/09 12:02:00;;;;;;;4.90;3.50;;;;;;;;;;5025677;28;20915;-78
2023/09/09 12:04:27;;;;;;;3.90;3.50;;;;;;;;;;5021386;28;20498;-77
2023/09/09 12:06:54;;;;;;;6.97;3.80;;;;;;;;;;5024494;28;20450;-78
2023/09/09 12:09:22;;;;;;;4.93;3.33;;;;;;;;;;5039205;28;20439;-78
2023/09/09 12:11:49;;;;;;;5.13;3.03;;;;;;;;;;5024630;28;20442;-77
2023/09/09 12:14:18;;;;;;;8.45;3.60;;;;;;;;;;5022366;28;20453;-78
2023/09/09 12:16:46;;;;;;;6.20;3.10;;;;;;;;;;5016961;28;20530;-77
2023/09/09 12:19:13;;;;;;;4.82;3.30;;;;;;;;;;5025589;28;20476;-79
2023/09/09 12:21:44;;;;;;;4.97;3.20;;;;;;;;;;5036202;28;20414;-78
2023/09/09 12:24:11;;;;;;;4.70;3.40;;;;;;;;;;5043662;28;20407;-79
2023/09/09 12:26:38;;;;;;;6.03;3.47;;;;;;;;;;5038004;28;20421;-78
2023/09/09 12:29:06;;;;;;;5.10;3.00;;;;;;;;;;5041203;28;20438;-78
2023/09/09 12:31:35;;;;;;;5.45;3.20;;;;;;;;;;5037354;28;20486;-79
2023/09/09 12:34:02;;;;;;;6.50;3.40;;;;;;;;;;5027743;28;20533;-79
2023/09/09 12:36:33;;;;;;;5.22;3.40;;;;;;;;;;5028655;28;20434;-78
2023/09/09 12:39:00;;;;;;;4.05;3.30;;;;;;;;;;5035113;28;20423;-79
2023/09/09 12:41:27;;;;;;;4.68;3.47;;;;;;;;;;5026834;28;20533;-79
2023/09/09 12:43:54;;;;;;;6.97;3.33;;;;;;;;;;5017164;28;20525;-79
2023/09/09 12:46:27;;;;;;;6.07;3.00;;;;;;;;;;5026174;28;20415;-79
2023/09/09 12:48:56;;;;;;;3.53;3.00;;;;;;;;;;5025783;28;20494;-78
2023/09/09 12:51:24;;;;;;;5.60;3.47;;;;;;;;;;5027046;28;20614;-78
2023/09/09 12:53:52;;;;;;;5.15;3.10;;;;;;;;;;5026853;28;20494;-79
2023/09/09 12:56:19;;;;;;;4.55;3.40;;;;;;;;;;5026700;28;20446;-78
2023/09/09 12:58:46;;;;;;;5.10;2.50;;;;;;;;;;5013278;28;20436;-79
2023/09/09 13:01:14;;;;;;;4.80;3.00;;;;;;;;;;5025527;28;20746;-79
2023/09/09 13:03:41;;;;;;;4.05;2.88;;;;;;;;;;5036908;28;20724;-78
2023/09/09 13:06:10;;;;;;;4.50;2.83;;;;;;;;;;5025881;28;20427;-78
2023/09/09 13:08:37;;;;;;;3.20;2.33;;;;;;;;;;5028157;28;20433;-79
2023/09/09 13:11:04;;;;;;;6.05;2.75;;;;;;;;;;5030987;28;20418;-79
2023/09/09 13:13:31;;;;;;;4.30;2.60;;;;;;;;;;5034096;28;20448;-78
2023/09/09 13:15:58;;;;;;;3.47;2.30;;;;;;;;;;5030970;28;20450;-78
2023/09/09 13:18:25;;;;;;;3.75;2.60;;;;;;;;;;5021016;28;20662;-79
2023/09/09 13:20:52;;;;;;;4.10;2.40;;;;;;;;;;5036173;28;20434;-78
2023/09/09 13:23:21;;;;;;;4.35;2.25;;;;;;;;;;5028515;28;20439;-79
2023/09/09 13:25:48;;;;;;;3.53;2.25;;;;;;;;;;5024777;28;20443;-78
2023/09/09 13:28:15;;;;;;;5.15;2.45;;;;;;;;;;5027942;28;20434;-80
2023/09/09 13:30:42;;;;;;;5.60;2.40;;;;;;;;;;5026420;28;20448;-79
2023/09/09 13:33:09;;;;;;;3.88;2.30;;;;;;;;;;5030919;28;20443;-79
2023/09/09 13:35:36;;;;;;;4.53;2.40;;;;;;;;;;5037551;28;20429;-79
2023/09/09 13:38:04;;;;;;;5.13;2.53;;;;;;;;;;5029050;28;20522;-80
2023/09/09 13:40:32;;;;;;;5.95;2.47;;;;;;;;;;5028946;28;20448;-79
2023/09/09 13:42:59;;;;;;;4.43;2.40;;;;;;;;;;5036486;28;20437;-79
2023/09/09 13:45:26;;;;;;;6.72;2.50;;;;;;;;;;5018181;28;20419;-79
2023/09/09 13:47:54;;;;;;;4.95;2.20;;;;;;;;;;5023569;28;20543;-80
2023/09/09 13:50:21;;;;;;;4.22;2.20;;;;;;;;;;5031018;28;20437;-79
2023/09/09 13:52:48;;;;;;;4.47;2.30;;;;;;;;;;5035774;28;20440;-79
2023/09/09 13:55:16;;;;;;;5.38;2.25;;;;;;;;;;5023753;28;20446;-79
2023/09/09 13:57:44;;;;;;;3.58;2.10;;;;;;;;;;5026533;28;20439;-81
2023/09/09 14:00:11;;;;;;;5.22;2.50;;;;;;;;;;5038360;28;20414;-80
2023/09/09 14:02:39;;;;;;;5.13;2.20;;;;;;;;;;5038001;28;20411;-79
2023/09/09 14:05:06;;;;;;;4.28;2.60;;;;;;;;;;5028398;28;20418;-78
2023/09/09 14:07:33;;;;;;;6.40;2.17;;;;;;;;;;5026860;28;20422;-80
2023/09/09 14:10:00;;;;;;;3.20;2.00;;;;;;;;;;5034671;28;20464;-80
2023/09/09 14:12:27;;;;;;;4.35;2.38;;;;;;;;;;5037580;28;20435;-80
2023/09/09 14:14:55;;;;;;;5.28;2.30;;;;;;;;;;5031776;28;20450;-80
2023/09/09 14:17:24;;;;;;;4.50;2.20;;;;;;;;;;5029187;28;20445;-78
2023/09/09 14:19:51;;;;;;;5.30;2.30;;;;;;;;;;5030617;28;20437;-80
2023/09/09 14:22:18;;;;;;;6.30;2.40;;;;;;;;;;5030097;28;21014;-78
2023/09/09 14:24:45;;;;;;;3.80;2.05;;;;;;;;;;5021779;28;20427;-78
2023/09/09 14:27:13;;;;;;;4.80;2.30;;;;;;;;;;5024130;28;20440;-79
2023/09/09 14:29:41;;;;;;;4.15;2.40;;;;;;;;;;5030196;28;20541;-78
2023/09/09 14:32:09;;;;;;;3.50;2.20;;;;;;;;;;5040751;28;20888;-78
2023/09/09 14:34:36;;;;;;;2.55;1.92;;;;;;;;;;5019692;28;20445;-79
2023/09/09 14:37:03;;;;;;;3.40;2.10;;;;;;;;;;5027354;28;20546;-78
2023/09/09 14:39:30;;;;;;;5.05;2.10;;;;;;;;;;5032085;28;20763;-80
2023/09/09 14:41:58;;;;;;;4.38;2.10;;;;;;;;;;5024815;28;20940;-79
2023/09/09 14:44:25;;;;;;;4.75;2.10;;;;;;;;;;5031946;28;20436;-79
2023/09/09 14:46:52;;;;;;;4.30;2.00;;;;;;;;;;5036568;28;20932;-79